sensor_id;sensor_type;location;lat;lon;timestamp;temperature;humidity
18141;DHT22;9196;49.194;12.526;2023-04-24T00:01:44;12.20;99.90
18141;DHT22;9196;49.194;12.526;2023-04-24T00:04:12;12.20;99.90
18141;DHT22;9196;49.194;12.526;2023-04-24T00:06:42;12.20;99.90
18141;DHT22;9196;49.194;12.526;2023-04-24T00:09:09;12.20;99.90
18141;DHT22;9196;49.194;12.526;2023-04-24T00:11:36;12.20;99.90
18141;DHT22;9196;49.194;12.526;2023-04-24T00:14:03;12.30;99.90
18141;DHT22;9196;49.194;12.526;2023-04-24T00:16:30;12.30;99.90
18141;DHT22;9196;49.194;12.526;2023-04-24T00:18:56;12.30;99.90
18141;DHT22;9196;49.194;12.526;2023-04-24T00:21:25;12.20;99.90
18141;DHT22;9196;49.194;12.526;2023-04-24T00:23:52;12.20;99.90
18141;DHT22;9196;49.194;12.526;2023-04-24T00:26:19;12.20;99.90
18141;DHT22;9196;49.194;12.526;2023-04-24T00:28:46;12.30;99.90
18141;DHT22;9196;49.194;12.526;2023-04-24T00:31:13;12.20;99.90
18141;DHT22;9196;49.194;12.526;2023-04-24T00:33:40;12.10;99.90
18141;DHT22;9196;49.194;12.526;2023-04-24T00:36:06;12.20;99.90
18141;DHT22;9196;49.194;12.526;2023-04-24T00:38:35;12.20;99.90
18141;DHT22;9196;49.194;12.526;2023-04-24T00:41:01;12.20;99.90
18141;DHT22;9196;49.194;12.526;2023-04-24T00:43:28;12.20;99.90
18141;DHT22;9196;49.194;12.526;2023-04-24T00:45:55;12.20;99.90
18141;DHT22;9196;49.194;12.526;2023-04-24T00:48:23;12.20;99.90
18141;DHT22;9196;49.194;12.526;2023-04-24T00:50:50;12.10;99.90
18141;DHT22;9196;49.194;12.526;2023-04-24T00:53:17;12.00;99.90
18141;DHT22;9196;49.194;12.526;2023-04-24T00:55:45;12.00;99.90
18141;DHT22;9196;49.194;12.526;2023-04-24T00:58:13;12.10;99.90
18141;DHT22;9196;49.194;12.526;2023-04-24T01:00:40;12.10;99.90
18141;DHT22;9196;49.194;12.526;2023-04-24T01:03:07;12.20;99.90
18141;DHT22;9196;49.194;12.526;2023-04-24T01:05:34;12.20;99.90
18141;DHT22;9196;49.194;12.526;2023-04-24T01:08:01;12.20;99.90
18141;DHT22;9196;49.194;12.526;2023-04-24T01:10:29;12.20;99.90
18141;DHT22;9196;49.194;12.526;2023-04-24T01:12:59;12.20;99.90
18141;DHT22;9196;49.194;12.526;2023-04-24T01:15:26;12.20;99.90
18141;DHT22;9196;49.194;12.526;2023-04-24T01:17:53;12.10;99.90
18141;DHT22;9196;49.194;12.526;2023-04-24T01:20:19;12.10;99.90
18141;DHT22;9196;49.194;12.526;2023-04-24T01:22:48;12.20;99.90
18141;DHT22;9196;49.194;12.526;2023-04-24T01:25:15;12.10;99.90
18141;DHT22;9196;49.194;12.526;2023-04-24T01:27:42;12.00;99.90
18141;DHT22;9196;49.194;12.526;2023-04-24T01:30:10;12.00;99.90
18141;DHT22;9196;49.194;12.526;2023-04-24T01:32:37;12.00;99.90
18141;DHT22;9196;49.194;12.526;2023-04-24T01:35:05;12.00;99.90
18141;DHT22;9196;49.194;12.526;2023-04-24T01:37:33;12.00;99.90
18141;DHT22;9196;49.194;12.526;2023-04-24T01:40:01;12.00;99.90
18141;DHT22;9196;49.194;12.526;2023-04-24T01:42:29;12.00;99.90
18141;DHT22;9196;49.194;12.526;2023-04-24T01:44:57;12.00;99.90
18141;DHT22;9196;49.194;12.526;2023-04-24T01:47:24;12.00;99.90
18141;DHT22;9196;49.194;12.526;2023-04-24T01:49:51;11.90;99.90
18141;DHT22;9196;49.194;12.526;2023-04-24T01:52:18;12.00;99.90
18141;DHT22;9196;49.194;12.526;2023-04-24T01:54:45;11.90;99.90
18141;DHT22;9196;49.194;12.526;2023-04-24T01:57:13;11.80;99.90
18141;DHT22;9196;49.194;12.526;2023-04-24T01:59:40;11.80;99.90
18141;DHT22;9196;49.194;12.526;2023-04-24T02:02:07;11.80;99.90
18141;DHT22;9196;49.194;12.526;2023-04-24T02:04:34;11.80;99.90
18141;DHT22;9196;49.194;12.526;2023-04-24T02:07:01;11.80;99.90
18141;DHT22;9196;49.194;12.526;2023-04-24T02:09:27;11.80;99.90
18141;DHT22;9196;49.194;12.526;2023-04-24T02:11:54;11.90;99.90
18141;DHT22;9196;49.194;12.526;2023-04-24T02:14:23;11.90;99.90
18141;DHT22;9196;49.194;12.526;2023-04-24T02:16:50;11.90;99.90
18141;DHT22;9196;49.194;12.526;2023-04-24T02:19:16;11.90;99.90
18141;DHT22;9196;49.194;12.526;2023-04-24T02:21:43;11.90;99.90
18141;DHT22;9196;49.194;12.526;2023-04-24T02:24:10;11.90;99.90
18141;DHT22;9196;49.194;12.526;2023-04-24T02:26:37;11.90;99.90
18141;DHT22;9196;49.194;12.526;2023-04-24T02:29:03;11.90;99.90
18141;DHT22;9196;49.194;12.526;2023-04-24T02:31:31;12.00;99.90
18141;DHT22;9196;49.194;12.526;2023-04-24T02:33:59;12.00;99.90
18141;DHT22;9196;49.194;12.526;2023-04-24T02:36:26;11.90;99.90
18141;DHT22;9196;49.194;12.526;2023-04-24T02:38:53;11.90;99.90
18141;DHT22;9196;49.194;12.526;2023-04-24T02:41:19;11.90;99.90
18141;DHT22;9196;49.194;12.526;2023-04-24T02:43:46;11.80;99.90
18141;DHT22;9196;49.194;12.526;2023-04-24T02:46:13;11.80;99.90
18141;DHT22;9196;49.194;12.526;2023-04-24T02:48:41;11.80;99.90
18141;DHT22;9196;49.194;12.526;2023-04-24T02:51:08;11.80;99.90
18141;DHT22;9196;49.194;12.526;2023-04-24T02:53:35;11.80;99.90
18141;DHT22;9196;49.194;12.526;2023-04-24T02:56:02;11.70;99.90
18141;DHT22;9196;49.194;12.526;2023-04-24T02:58:28;11.70;99.90
18141;DHT22;9196;49.194;12.526;2023-04-24T03:00:55;11.70;99.90
18141;DHT22;9196;49.194;12.526;2023-04-24T03:03:22;11.80;99.90
18141;DHT22;9196;49.194;12.526;2023-04-24T03:05:51;11.80;99.90
18141;DHT22;9196;49.194;12.526;2023-04-24T03:08:18;11.70;99.90
18141;DHT22;9196;49.194;12.526;2023-04-24T03:10:44;11.70;99.90
18141;DHT22;9196;49.194;12.526;2023-04-24T03:13:11;11.80;99.90
18141;DHT22;9196;49.194;12.526;2023-04-24T03:15:38;11.80;99.90
18141;DHT22;9196;49.194;12.526;2023-04-24T03:18:05;11.80;99.90
18141;DHT22;9196;49.194;12.526;2023-04-24T03:20:32;11.80;99.90
18141;DHT22;9196;49.194;12.526;2023-04-24T03:23:00;11.80;99.90
18141;DHT22;9196;49.194;12.526;2023-04-24T03:25:27;11.80;99.90
18141;DHT22;9196;49.194;12.526;2023-04-24T03:27:53;11.80;99.90
18141;DHT22;9196;49.194;12.526;2023-04-24T03:30:20;11.80;99.90
18141;DHT22;9196;49.194;12.526;2023-04-24T03:32:47;11.70;99.90
18141;DHT22;9196;49.194;12.526;2023-04-24T03:35:14;11.70;99.90
18141;DHT22;9196;49.194;12.526;2023-04-24T03:37:41;11.70;99.90
18141;DHT22;9196;49.194;12.526;2023-04-24T03:40:10;11.70;99.90
18141;DHT22;9196;49.194;12.526;2023-04-24T03:42:36;11.70;99.90
18141;DHT22;9196;49.194;12.526;2023-04-24T03:45:04;11.60;99.90
18141;DHT22;9196;49.194;12.526;2023-04-24T03:47:31;11.60;99.90
18141;DHT22;9196;49.194;12.526;2023-04-24T03:49:57;11.60;99.90
18141;DHT22;9196;49.194;12.526;2023-04-24T03:52:24;11.60;99.90
18141;DHT22;9196;49.194;12.526;2023-04-24T03:54:51;11.60;99.90
18141;DHT22;9196;49.194;12.526;2023-04-24T03:57:19;11.60;99.90
18141;DHT22;9196;49.194;12.526;2023-04-24T03:59:46;11.60;99.90
18141;DHT22;9196;49.194;12.526;2023-04-24T04:02:13;11.50;99.90
18141;DHT22;9196;49.194;12.526;2023-04-24T04:04:39;11.50;99.90
18141;DHT22;9196;49.194;12.526;2023-04-24T04:07:06;11.60;99.90
18141;DHT22;9196;49.194;12.526;2023-04-24T04:09:34;11.50;99.90
18141;DHT22;9196;49.194;12.526;2023-04-24T04:12:00;11.50;99.90
18141;DHT22;9196;49.194;12.526;2023-04-24T04:14:28;11.50;99.90
18141;DHT22;9196;49.194;12.526;2023-04-24T04:16:55;11.50;99.90
18141;DHT22;9196;49.194;12.526;2023-04-24T04:19:22;11.60;99.90
18141;DHT22;9196;49.194;12.526;2023-04-24T04:21:49;11.60;99.90
18141;DHT22;9196;49.194;12.526;2023-04-24T04:24:18;11.60;99.90
18141;DHT22;9196;49.194;12.526;2023-04-24T04:26:46;11.60;99.90
18141;DHT22;9196;49.194;12.526;2023-04-24T04:29:13;11.60;99.90
18141;DHT22;9196;49.194;12.526;2023-04-24T04:31:42;11.60;99.90
18141;DHT22;9196;49.194;12.526;2023-04-24T04:34:08;11.60;99.90
18141;DHT22;9196;49.194;12.526;2023-04-24T04:36:35;11.60;99.90
18141;DHT22;9196;49.194;12.526;2023-04-24T04:39:05;11.60;99.90
18141;DHT22;9196;49.194;12.526;2023-04-24T04:41:32;11.60;99.90
18141;DHT22;9196;49.194;12.526;2023-04-24T04:44:00;11.50;99.90
18141;DHT22;9196;49.194;12.526;2023-04-24T04:46:30;11.60;99.90
18141;DHT22;9196;49.194;12.526;2023-04-24T04:48:59;11.60;99.90
18141;DHT22;9196;49.194;12.526;2023-04-24T04:51:26;11.60;99.90
18141;DHT22;9196;49.194;12.526;2023-04-24T04:53:53;11.70;99.90
18141;DHT22;9196;49.194;12.526;2023-04-24T04:56:20;11.60;99.90
18141;DHT22;9196;49.194;12.526;2023-04-24T04:58:47;11.60;99.90
18141;DHT22;9196;49.194;12.526;2023-04-24T05:01:14;11.60;99.90
18141;DHT22;9196;49.194;12.526;2023-04-24T05:03:41;11.50;99.90
18141;DHT22;9196;49.194;12.526;2023-04-24T05:06:09;11.40;99.90
18141;DHT22;9196;49.194;12.526;2023-04-24T05:08:36;11.40;99.90
18141;DHT22;9196;49.194;12.526;2023-04-24T05:11:03;11.50;99.90
18141;DHT22;9196;49.194;12.526;2023-04-24T05:13:30;11.40;99.90
18141;DHT22;9196;49.194;12.526;2023-04-24T05:15:57;11.50;99.90
18141;DHT22;9196;49.194;12.526;2023-04-24T05:18:24;11.40;99.90
18141;DHT22;9196;49.194;12.526;2023-04-24T05:20:51;11.20;99.90
18141;DHT22;9196;49.194;12.526;2023-04-24T05:30:04;11.10;99.90
18141;DHT22;9196;49.194;12.526;2023-04-24T05:32:31;11.10;99.90
18141;DHT22;9196;49.194;12.526;2023-04-24T05:34:58;11.00;99.90
18141;DHT22;9196;49.194;12.526;2023-04-24T05:37:25;11.00;99.90
18141;DHT22;9196;49.194;12.526;2023-04-24T05:39:52;11.00;99.90
18141;DHT22;9196;49.194;12.526;2023-04-24T05:42:19;11.00;99.90
18141;DHT22;9196;49.194;12.526;2023-04-24T05:44:45;11.00;99.90
18141;DHT22;9196;49.194;12.526;2023-04-24T05:47:14;11.10;99.90
18141;DHT22;9196;49.194;12.526;2023-04-24T05:49:40;11.10;99.90
18141;DHT22;9196;49.194;12.526;2023-04-24T05:52:07;11.20;99.90
18141;DHT22;9196;49.194;12.526;2023-04-24T05:54:34;11.20;99.90
18141;DHT22;9196;49.194;12.526;2023-04-24T05:57:01;11.20;99.90
18141;DHT22;9196;49.194;12.526;2023-04-24T05:59:32;11.20;99.90
18141;DHT22;9196;49.194;12.526;2023-04-24T06:01:59;11.30;99.90
18141;DHT22;9196;49.194;12.526;2023-04-24T06:04:27;11.40;99.90
18141;DHT22;9196;49.194;12.526;2023-04-24T06:06:54;11.40;99.90
18141;DHT22;9196;49.194;12.526;2023-04-24T06:09:22;11.40;99.90
18141;DHT22;9196;49.194;12.526;2023-04-24T06:11:49;11.30;99.90
18141;DHT22;9196;49.194;12.526;2023-04-24T06:14:18;11.40;99.90
18141;DHT22;9196;49.194;12.526;2023-04-24T06:16:45;11.40;99.90
18141;DHT22;9196;49.194;12.526;2023-04-24T06:19:12;11.40;99.90
18141;DHT22;9196;49.194;12.526;2023-04-24T06:21:40;11.40;99.90
18141;DHT22;9196;49.194;12.526;2023-04-24T06:24:07;11.40;99.90
18141;DHT22;9196;49.194;12.526;2023-04-24T06:26:37;11.30;99.90
18141;DHT22;9196;49.194;12.526;2023-04-24T06:29:04;11.40;99.90
18141;DHT22;9196;49.194;12.526;2023-04-24T06:31:31;11.40;99.90
18141;DHT22;9196;49.194;12.526;2023-04-24T06:34:02;11.30;99.90
18141;DHT22;9196;49.194;12.526;2023-04-24T06:36:29;11.30;99.90
18141;DHT22;9196;49.194;12.526;2023-04-24T06:41:25;11.40;99.90
18141;DHT22;9196;49.194;12.526;2023-04-24T06:43:52;11.40;99.90
18141;DHT22;9196;49.194;12.526;2023-04-24T06:46:19;11.50;99.90
18141;DHT22;9196;49.194;12.526;2023-04-24T06:48:47;11.40;99.90
18141;DHT22;9196;49.194;12.526;2023-04-24T06:51:14;11.50;99.90
18141;DHT22;9196;49.194;12.526;2023-04-24T06:53:41;11.50;99.90
18141;DHT22;9196;49.194;12.526;2023-04-24T06:56:07;11.50;99.90
18141;DHT22;9196;49.194;12.526;2023-04-24T06:58:35;11.50;99.90
18141;DHT22;9196;49.194;12.526;2023-04-24T07:01:02;11.50;99.90
18141;DHT22;9196;49.194;12.526;2023-04-24T07:03:29;11.50;99.90
18141;DHT22;9196;49.194;12.526;2023-04-24T07:05:56;11.60;99.90
18141;DHT22;9196;49.194;12.526;2023-04-24T07:08:23;11.60;99.90
18141;DHT22;9196;49.194;12.526;2023-04-24T07:10:51;11.60;99.90
18141;DHT22;9196;49.194;12.526;2023-04-24T07:13:17;11.60;99.90
18141;DHT22;9196;49.194;12.526;2023-04-24T07:15:45;11.60;99.90
18141;DHT22;9196;49.194;12.526;2023-04-24T07:18:14;11.60;99.90
18141;DHT22;9196;49.194;12.526;2023-04-24T07:20:41;11.70;99.90
18141;DHT22;9196;49.194;12.526;2023-04-24T07:23:07;11.70;99.90
18141;DHT22;9196;49.194;12.526;2023-04-24T07:25:34;11.70;99.90
18141;DHT22;9196;49.194;12.526;2023-04-24T07:28:01;11.60;99.90
18141;DHT22;9196;49.194;12.526;2023-04-24T07:30:28;11.60;99.90
18141;DHT22;9196;49.194;12.526;2023-04-24T07:32:56;11.70;99.90
18141;DHT22;9196;49.194;12.526;2023-04-24T07:35:23;11.80;99.90
18141;DHT22;9196;49.194;12.526;2023-04-24T07:37:51;12.00;99.90
18141;DHT22;9196;49.194;12.526;2023-04-24T07:40:18;12.00;99.90
18141;DHT22;9196;49.194;12.526;2023-04-24T07:42:44;12.00;99.90
18141;DHT22;9196;49.194;12.526;2023-04-24T07:45:13;12.00;99.90
18141;DHT22;9196;49.194;12.526;2023-04-24T07:47:41;12.00;99.90
18141;DHT22;9196;49.194;12.526;2023-04-24T07:50:11;12.10;99.90
18141;DHT22;9196;49.194;12.526;2023-04-24T07:52:38;12.10;99.90
18141;DHT22;9196;49.194;12.526;2023-04-24T07:55:05;12.00;99.90
18141;DHT22;9196;49.194;12.526;2023-04-24T07:57:32;11.90;99.90
18141;DHT22;9196;49.194;12.526;2023-04-24T07:59:59;11.90;99.90
18141;DHT22;9196;49.194;12.526;2023-04-24T08:02:26;12.00;99.90
18141;DHT22;9196;49.194;12.526;2023-04-24T08:04:53;12.10;99.90
18141;DHT22;9196;49.194;12.526;2023-04-24T08:07:21;12.20;99.90
18141;DHT22;9196;49.194;12.526;2023-04-24T08:09:48;12.10;99.90
18141;DHT22;9196;49.194;12.526;2023-04-24T08:12:15;12.20;99.90
18141;DHT22;9196;49.194;12.526;2023-04-24T08:14:42;12.20;99.90
18141;DHT22;9196;49.194;12.526;2023-04-24T08:17:08;12.40;99.90
18141;DHT22;9196;49.194;12.526;2023-04-24T08:19:35;12.50;99.90
18141;DHT22;9196;49.194;12.526;2023-04-24T08:22:02;12.50;99.90
18141;DHT22;9196;49.194;12.526;2023-04-24T08:24:30;12.60;99.90
18141;DHT22;9196;49.194;12.526;2023-04-24T08:26:57;12.70;99.90
18141;DHT22;9196;49.194;12.526;2023-04-24T08:29:24;12.80;99.90
18141;DHT22;9196;49.194;12.526;2023-04-24T08:31:52;12.90;99.90
18141;DHT22;9196;49.194;12.526;2023-04-24T08:34:19;13.10;99.90
18141;DHT22;9196;49.194;12.526;2023-04-24T08:36:46;13.00;99.90
18141;DHT22;9196;49.194;12.526;2023-04-24T08:39:14;13.10;99.90
18141;DHT22;9196;49.194;12.526;2023-04-24T08:41:42;13.20;99.90
18141;DHT22;9196;49.194;12.526;2023-04-24T08:44:12;13.30;99.90
18141;DHT22;9196;49.194;12.526;2023-04-24T08:46:41;13.30;99.90
18141;DHT22;9196;49.194;12.526;2023-04-24T08:49:08;13.30;99.90
18141;DHT22;9196;49.194;12.526;2023-04-24T08:51:36;13.50;99.90
18141;DHT22;9196;49.194;12.526;2023-04-24T08:54:04;13.40;99.90
18141;DHT22;9196;49.194;12.526;2023-04-24T08:56:34;13.30;99.90
18141;DHT22;9196;49.194;12.526;2023-04-24T08:59:04;13.30;99.90
18141;DHT22;9196;49.194;12.526;2023-04-24T09:01:32;13.30;99.90
18141;DHT22;9196;49.194;12.526;2023-04-24T09:04:02;13.30;99.90
18141;DHT22;9196;49.194;12.526;2023-04-24T09:06:30;13.40;99.90
18141;DHT22;9196;49.194;12.526;2023-04-24T09:08:58;13.10;99.90
18141;DHT22;9196;49.194;12.526;2023-04-24T09:11:26;12.70;99.90
18141;DHT22;9196;49.194;12.526;2023-04-24T09:13:53;12.40;99.90
18141;DHT22;9196;49.194;12.526;2023-04-24T09:16:22;12.10;99.90
18141;DHT22;9196;49.194;12.526;2023-04-24T09:18:49;11.80;99.90
18141;DHT22;9196;49.194;12.526;2023-04-24T09:21:16;11.60;99.90
18141;DHT22;9196;49.194;12.526;2023-04-24T09:23:43;11.40;99.90
18141;DHT22;9196;49.194;12.526;2023-04-24T09:26:10;11.30;99.90
18141;DHT22;9196;49.194;12.526;2023-04-24T09:28:38;11.20;99.90
18141;DHT22;9196;49.194;12.526;2023-04-24T09:31:07;11.10;99.90
18141;DHT22;9196;49.194;12.526;2023-04-24T09:33:35;11.00;99.90
18141;DHT22;9196;49.194;12.526;2023-04-24T09:36:03;10.80;99.90
18141;DHT22;9196;49.194;12.526;2023-04-24T09:38:33;10.70;99.90
18141;DHT22;9196;49.194;12.526;2023-04-24T09:41:01;10.60;99.90
18141;DHT22;9196;49.194;12.526;2023-04-24T09:43:29;10.70;99.90
18141;DHT22;9196;49.194;12.526;2023-04-24T09:45:57;10.80;99.90
18141;DHT22;9196;49.194;12.526;2023-04-24T09:48:30;10.90;99.90
18141;DHT22;9196;49.194;12.526;2023-04-24T09:51:01;10.90;99.90
18141;DHT22;9196;49.194;12.526;2023-04-24T09:53:28;11.00;99.90
18141;DHT22;9196;49.194;12.526;2023-04-24T09:55:56;11.20;99.90
18141;DHT22;9196;49.194;12.526;2023-04-24T09:58:26;11.40;99.90
18141;DHT22;9196;49.194;12.526;2023-04-24T10:00:53;11.50;99.90
18141;DHT22;9196;49.194;12.526;2023-04-24T10:03:24;11.70;99.90
18141;DHT22;9196;49.194;12.526;2023-04-24T10:05:51;11.70;99.90
18141;DHT22;9196;49.194;12.526;2023-04-24T10:08:20;11.70;99.90
18141;DHT22;9196;49.194;12.526;2023-04-24T10:10:47;11.80;99.90
18141;DHT22;9196;49.194;12.526;2023-04-24T10:13:14;12.10;99.90
18141;DHT22;9196;49.194;12.526;2023-04-24T10:15:42;12.50;99.90
18141;DHT22;9196;49.194;12.526;2023-04-24T10:18:09;12.80;99.90
18141;DHT22;9196;49.194;12.526;2023-04-24T10:20:37;13.20;99.90
18141;DHT22;9196;49.194;12.526;2023-04-24T10:23:05;13.50;99.90
18141;DHT22;9196;49.194;12.526;2023-04-24T10:25:34;13.30;99.90
18141;DHT22;9196;49.194;12.526;2023-04-24T10:28:02;13.40;99.90
18141;DHT22;9196;49.194;12.526;2023-04-24T10:30:30;13.30;99.90
18141;DHT22;9196;49.194;12.526;2023-04-24T10:33:00;13.30;99.90
18141;DHT22;9196;49.194;12.526;2023-04-24T10:35:30;13.30;99.90
18141;DHT22;9196;49.194;12.526;2023-04-24T10:38:01;13.30;99.90
18141;DHT22;9196;49.194;12.526;2023-04-24T10:40:31;13.50;99.90
18141;DHT22;9196;49.194;12.526;2023-04-24T10:43:01;13.60;99.90
18141;DHT22;9196;49.194;12.526;2023-04-24T10:45:30;13.80;99.90
18141;DHT22;9196;49.194;12.526;2023-04-24T10:47:59;13.60;99.90
18141;DHT22;9196;49.194;12.526;2023-04-24T10:50:27;13.50;99.90
18141;DHT22;9196;49.194;12.526;2023-04-24T10:53:05;13.40;99.90
18141;DHT22;9196;49.194;12.526;2023-04-24T10:55:43;13.30;99.90
18141;DHT22;9196;49.194;12.526;2023-04-24T10:58:11;13.20;99.90
18141;DHT22;9196;49.194;12.526;2023-04-24T11:00:39;13.10;99.90
18141;DHT22;9196;49.194;12.526;2023-04-24T11:03:06;13.10;99.90
18141;DHT22;9196;49.194;12.526;2023-04-24T11:05:50;13.20;99.90
18141;DHT22;9196;49.194;12.526;2023-04-24T11:08:32;13.00;99.90
18141;DHT22;9196;49.194;12.526;2023-04-24T11:11:02;13.00;99.90
18141;DHT22;9196;49.194;12.526;2023-04-24T11:14:04;13.10;99.90
18141;DHT22;9196;49.194;12.526;2023-04-24T11:16:33;13.30;99.90
18141;DHT22;9196;49.194;12.526;2023-04-24T11:19:02;13.50;99.90
18141;DHT22;9196;49.194;12.526;2023-04-24T11:21:31;13.40;99.70
18141;DHT22;9196;49.194;12.526;2023-04-24T11:23:58;13.20;99.90
18141;DHT22;9196;49.194;12.526;2023-04-24T11:26:26;13.30;99.90
18141;DHT22;9196;49.194;12.526;2023-04-24T11:29:07;13.40;99.80
18141;DHT22;9196;49.194;12.526;2023-04-24T11:31:38;13.70;99.90
18141;DHT22;9196;49.194;12.526;2023-04-24T11:34:09;13.90;99.20
18141;DHT22;9196;49.194;12.526;2023-04-24T11:36:36;14.20;98.70
18141;DHT22;9196;49.194;12.526;2023-04-24T11:39:03;14.40;97.60
18141;DHT22;9196;49.194;12.526;2023-04-24T11:41:30;14.20;97.00
18141;DHT22;9196;49.194;12.526;2023-04-24T11:43:57;14.40;96.30
18141;DHT22;9196;49.194;12.526;2023-04-24T11:46:28;14.30;96.30
18141;DHT22;9196;49.194;12.526;2023-04-24T11:48:57;14.10;97.90
18141;DHT22;9196;49.194;12.526;2023-04-24T11:51:25;14.10;95.30
18141;DHT22;9196;49.194;12.526;2023-04-24T11:53:53;14.10;98.80
18141;DHT22;9196;49.194;12.526;2023-04-24T11:56:21;14.30;97.30
18141;DHT22;9196;49.194;12.526;2023-04-24T11:58:48;14.30;95.70
18141;DHT22;9196;49.194;12.526;2023-04-24T12:01:15;14.20;95.90
18141;DHT22;9196;49.194;12.526;2023-04-24T12:03:47;14.10;96.40
18141;DHT22;9196;49.194;12.526;2023-04-24T12:06:14;14.10;97.10
18141;DHT22;9196;49.194;12.526;2023-04-24T12:08:41;14.10;97.90
18141;DHT22;9196;49.194;12.526;2023-04-24T12:11:08;13.90;97.90
18141;DHT22;9196;49.194;12.526;2023-04-24T12:13:35;13.80;98.40
18141;DHT22;9196;49.194;12.526;2023-04-24T12:16:03;13.70;98.40
18141;DHT22;9196;49.194;12.526;2023-04-24T12:18:30;13.60;98.70
18141;DHT22;9196;49.194;12.526;2023-04-24T12:21:16;13.40;99.90
18141;DHT22;9196;49.194;12.526;2023-04-24T12:23:43;13.20;99.90
18141;DHT22;9196;49.194;12.526;2023-04-24T12:26:10;13.00;99.90
18141;DHT22;9196;49.194;12.526;2023-04-24T12:28:38;12.90;99.90
18141;DHT22;9196;49.194;12.526;2023-04-24T12:31:06;12.90;99.90
18141;DHT22;9196;49.194;12.526;2023-04-24T12:33:34;12.90;99.90
18141;DHT22;9196;49.194;12.526;2023-04-24T12:36:01;12.90;99.90
18141;DHT22;9196;49.194;12.526;2023-04-24T12:38:30;13.00;99.90
18141;DHT22;9196;49.194;12.526;2023-04-24T12:41:04;13.10;99.90
18141;DHT22;9196;49.194;12.526;2023-04-24T12:43:31;13.10;99.90
18141;DHT22;9196;49.194;12.526;2023-04-24T12:45:58;13.20;99.90
18141;DHT22;9196;49.194;12.526;2023-04-24T12:48:25;13.20;99.90
18141;DHT22;9196;49.194;12.526;2023-04-24T12:50:52;13.20;99.90
18141;DHT22;9196;49.194;12.526;2023-04-24T12:53:19;13.50;99.90
18141;DHT22;9196;49.194;12.526;2023-04-24T12:55:47;13.70;99.90
18141;DHT22;9196;49.194;12.526;2023-04-24T12:58:19;13.90;98.80
18141;DHT22;9196;49.194;12.526;2023-04-24T13:00:46;13.80;99.40
18141;DHT22;9196;49.194;12.526;2023-04-24T13:03:13;13.80;99.90
18141;DHT22;9196;49.194;12.526;2023-04-24T13:05:40;13.90;99.90
18141;DHT22;9196;49.194;12.526;2023-04-24T13:08:07;13.80;99.10
18141;DHT22;9196;49.194;12.526;2023-04-24T13:10:34;13.70;98.30
18141;DHT22;9196;49.194;12.526;2023-04-24T13:13:02;13.70;99.20
18141;DHT22;9196;49.194;12.526;2023-04-24T13:15:29;13.80;99.20
18141;DHT22;9196;49.194;12.526;2023-04-24T13:17:56;14.10;99.60
18141;DHT22;9196;49.194;12.526;2023-04-24T13:20:23;14.10;96.80
18141;DHT22;9196;49.194;12.526;2023-04-24T13:22:50;14.20;96.60
18141;DHT22;9196;49.194;12.526;2023-04-24T13:25:17;14.10;97.10
18141;DHT22;9196;49.194;12.526;2023-04-24T13:27:45;14.10;97.20
18141;DHT22;9196;49.194;12.526;2023-04-24T13:30:14;14.00;95.30
18141;DHT22;9196;49.194;12.526;2023-04-24T13:32:40;13.90;92.60
18141;DHT22;9196;49.194;12.526;2023-04-24T13:35:08;13.80;90.60
18141;DHT22;9196;49.194;12.526;2023-04-24T13:37:35;13.70;91.70
18141;DHT22;9196;49.194;12.526;2023-04-24T13:40:02;13.70;91.80
18141;DHT22;9196;49.194;12.526;2023-04-24T13:42:31;14.00;92.60
18141;DHT22;9196;49.194;12.526;2023-04-24T13:44:58;14.00;91.80
18141;DHT22;9196;49.194;12.526;2023-04-24T13:47:26;14.10;92.20
18141;DHT22;9196;49.194;12.526;2023-04-24T13:49:53;14.10;92.70
18141;DHT22;9196;49.194;12.526;2023-04-24T13:52:20;14.20;93.80
18141;DHT22;9196;49.194;12.526;2023-04-24T13:54:46;14.20;92.80
18141;DHT22;9196;49.194;12.526;2023-04-24T13:57:14;14.10;93.90
18141;DHT22;9196;49.194;12.526;2023-04-24T13:59:41;14.00;92.70
18141;DHT22;9196;49.194;12.526;2023-04-24T14:02:08;13.70;92.90
18141;DHT22;9196;49.194;12.526;2023-04-24T14:04:36;13.50;93.30
18141;DHT22;9196;49.194;12.526;2023-04-24T14:07:02;13.50;92.90
18141;DHT22;9196;49.194;12.526;2023-04-24T14:09:29;13.50;92.90
18141;DHT22;9196;49.194;12.526;2023-04-24T14:11:56;13.70;92.40
18141;DHT22;9196;49.194;12.526;2023-04-24T14:14:23;13.90;93.00
18141;DHT22;9196;49.194;12.526;2023-04-24T14:16:49;14.00;92.00
18141;DHT22;9196;49.194;12.526;2023-04-24T14:19:16;14.10;92.50
18141;DHT22;9196;49.194;12.526;2023-04-24T14:21:44;14.30;92.00
18141;DHT22;9196;49.194;12.526;2023-04-24T14:24:11;14.20;91.80
18141;DHT22;9196;49.194;12.526;2023-04-24T14:26:39;14.20;91.10
18141;DHT22;9196;49.194;12.526;2023-04-24T14:29:05;14.20;91.40
18141;DHT22;9196;49.194;12.526;2023-04-24T14:31:32;14.20;89.90
18141;DHT22;9196;49.194;12.526;2023-04-24T14:33:59;14.20;90.40
18141;DHT22;9196;49.194;12.526;2023-04-24T14:36:26;14.20;90.40
18141;DHT22;9196;49.194;12.526;2023-04-24T14:38:54;14.10;90.60
18141;DHT22;9196;49.194;12.526;2023-04-24T14:41:21;14.10;91.20
18141;DHT22;9196;49.194;12.526;2023-04-24T14:43:47;14.20;91.90
18141;DHT22;9196;49.194;12.526;2023-04-24T14:46:14;14.30;91.30
18141;DHT22;9196;49.194;12.526;2023-04-24T14:48:41;14.20;91.00
18141;DHT22;9196;49.194;12.526;2023-04-24T14:51:07;14.20;90.70
18141;DHT22;9196;49.194;12.526;2023-04-24T14:53:34;14.00;91.20
18141;DHT22;9196;49.194;12.526;2023-04-24T14:56:02;13.90;92.10
18141;DHT22;9196;49.194;12.526;2023-04-24T14:58:29;13.80;91.80
18141;DHT22;9196;49.194;12.526;2023-04-24T15:00:56;13.50;91.90
18141;DHT22;9196;49.194;12.526;2023-04-24T15:03:23;13.50;91.40
18141;DHT22;9196;49.194;12.526;2023-04-24T15:05:52;13.50;91.90
18141;DHT22;9196;49.194;12.526;2023-04-24T15:08:18;13.60;92.70
18141;DHT22;9196;49.194;12.526;2023-04-24T15:10:46;13.60;91.30
18141;DHT22;9196;49.194;12.526;2023-04-24T15:13:14;13.50;91.50
18141;DHT22;9196;49.194;12.526;2023-04-24T15:15:41;13.70;91.30
18141;DHT22;9196;49.194;12.526;2023-04-24T15:18:08;13.70;91.70
18141;DHT22;9196;49.194;12.526;2023-04-24T15:20:36;13.70;92.20
18141;DHT22;9196;49.194;12.526;2023-04-24T15:23:04;13.60;90.30
18141;DHT22;9196;49.194;12.526;2023-04-24T15:25:32;13.50;90.10
18141;DHT22;9196;49.194;12.526;2023-04-24T15:27:59;13.50;90.60
18141;DHT22;9196;49.194;12.526;2023-04-24T15:30:28;13.60;91.40
18141;DHT22;9196;49.194;12.526;2023-04-24T15:32:55;13.50;90.60
18141;DHT22;9196;49.194;12.526;2023-04-24T15:35:22;13.40;90.90
18141;DHT22;9196;49.194;12.526;2023-04-24T15:37:49;13.20;90.50
18141;DHT22;9196;49.194;12.526;2023-04-24T15:40:16;13.10;91.00
18141;DHT22;9196;49.194;12.526;2023-04-24T15:42:42;12.90;90.00